Terminal Aerodrome Forecast
Issued by NWS

Home | Current Version | Previous Version | Graphics & Text | Print | Product List | Glossary On
Versions: 1 2 3 4 5 6 7 8 9 10 11 12 13 14
512
FTUS43 KMPX 301124
TAFRNH
TAF
KRNH 301124Z 3012/0112 VRB03KT 6SM -RASN OVC005
     FM301800 35004KT 4SM -RA BR OVC009
     FM010100 32006KT P6SM VCSH OVC008
     FM010800 30006KT P6SM OVC003=

USA.gov is the U.S. government's official web portal to all federal, state and local government web resources and services.